Aeroporto :
LOGIN :

Iscrizione | Disclaimer

   EN    FR    IT 

 










Sommario :    VFR   VFR Marginale   IFR   IFR Intensivo   IFR Molto Intensivo
Visibilità : 
Base nubi : 
>= 8 km
>= 3000ft
5 / 8 km
1000 / 3000 ft
1500m / 5 km
500 / 1000 ft
800 / 1500m
200 / 500 ft
< 800m
< 200 ft
Simboli :   Temporali  Nebbia  Neve Forte  Precipitazioni Forti  Vento > 20 kt
SIGMETs :   Varie  Temporali  Ghiacco  Turbolenza  Onda orograficha  Ceneri Vulcaniche






- Altitudine del aeroporto : 231 ft
- Codice IATA : WTN


EGXW - RAF Waddington

ULTIMO METAR :
  • 140550Z 16004KT CAVOK 07/07 Q1010 NOSIG RMK BLU BLU

METARs OBSOLETI :
  • 140450Z 20004KT CAVOK 09/07 Q1010 RMK BLU
  • 140350Z 23006KT CAVOK 09/09 Q1010 RMK BLU

TAF TAF EGXW
Valido dal 14 a 06 ore il 15 a 00 ore UTC


140428Z 1406/1424 12005KT 9999 FEW030
TEMPO 1411/1414 6000 -RA
PROB30
TEMPO 1411/1414 BKN007
BECMG 1414/1417 BKN008
TEMPO 1414/1424 4000 RA BKN005
PROB40
TEMPO 1415/1421 2000 +RA
PROB40
TEMPO 1418/1424 BKN002



MetMap, La meteo Aeronautica in un colpo d'occhio ! - Copyright ORBIFLY Dicembre 2007 - Disclaimer

ORBIFLY MET'MAP TEAM :

Programmazione e sviluppo : Alexandra Zaïnal
Concezione e sviluppo : Baudouin d'Aumeries
Co-Programmazione e sviluppo : Marc-Olivier Méhu
Supporto tecnico e logistico : Manuel Goepfert
Aiuto per la traduzione : Arnaldo La Scala

Contatto : metmap@orbifly.com




FONTI E CREDITI :

   NOAA